createdAt,value
2018-12-11T00:01:01.359Z,8.57
2018-12-11T00:03:28.790Z,16.40
2018-12-11T00:05:57.543Z,12.50
2018-12-11T00:08:25.088Z,12.43
2018-12-11T00:10:52.568Z,10.60
2018-12-11T00:13:20.120Z,10.47
2018-12-11T00:15:47.672Z,9.97
2018-12-11T00:18:15.082Z,11.03
2018-12-11T00:20:42.703Z,16.17
2018-12-11T00:23:10.210Z,11.00
2018-12-11T00:25:37.712Z,16.60
2018-12-11T00:28:05.842Z,10.73
2018-12-11T00:30:33.314Z,6.70
2018-12-11T00:33:00.779Z,7.77
2018-12-11T00:35:28.210Z,7.10
2018-12-11T00:37:55.698Z,9.67
2018-12-11T00:40:23.186Z,6.73
2018-12-11T00:42:50.629Z,10.73
2018-12-11T00:45:18.129Z,15.57
2018-12-11T00:47:45.562Z,10.53
2018-12-11T00:50:13.061Z,9.60
2018-12-11T00:52:40.556Z,8.90
2018-12-11T00:55:08.172Z,11.43
2018-12-11T00:57:35.753Z,14.20
2018-12-11T01:00:05.116Z,15.53
2018-12-11T01:02:32.659Z,10.90
2018-12-11T01:05:00.112Z,19.10
2018-12-11T01:07:27.581Z,8.80
2018-12-11T01:09:55.005Z,9.70
2018-12-11T01:12:22.498Z,14.50
2018-12-11T01:14:50.000Z,14.00
2018-12-11T01:17:17.522Z,7.30
2018-12-11T01:19:45.522Z,12.23
2018-12-11T01:22:13.584Z,17.80
2018-12-11T01:24:40.962Z,19.20
2018-12-11T01:27:08.487Z,17.90
2018-12-11T01:29:35.941Z,13.63
2018-12-11T01:32:03.359Z,15.33
2018-12-11T01:34:30.835Z,11.10
2018-12-11T01:36:58.231Z,11.07
2018-12-11T01:39:25.627Z,18.97
2018-12-11T01:41:53.064Z,13.43
2018-12-11T01:44:20.469Z,12.30
2018-12-11T01:46:47.876Z,10.40
2018-12-11T01:49:16.543Z,16.77
2018-12-11T01:51:44.118Z,16.57
2018-12-11T01:54:11.794Z,10.63
2018-12-11T01:56:39.264Z,11.53
2018-12-11T01:59:06.664Z,8.67
2018-12-11T02:01:34.165Z,17.97
2018-12-11T02:04:01.749Z,14.07
2018-12-11T02:06:31.162Z,12.97
2018-12-11T02:08:58.723Z,23.43
2018-12-11T02:11:26.213Z,14.67
2018-12-11T02:13:53.597Z,16.13
2018-12-11T02:16:21.091Z,17.53
2018-12-11T02:18:48.610Z,14.43
2018-12-11T02:21:17.338Z,17.60
2018-12-11T02:23:44.774Z,15.17
2018-12-11T02:26:12.192Z,9.50
2018-12-11T02:28:39.653Z,15.10
2018-12-11T02:31:08.119Z,17.90
2018-12-11T02:33:35.633Z,14.30
2018-12-11T02:36:03.202Z,13.70
2018-12-11T02:38:30.768Z,12.60
2018-12-11T02:40:59.014Z,13.00
2018-12-11T02:43:26.521Z,12.37
2018-12-11T02:45:54.905Z,13.13
2018-12-11T02:48:22.531Z,8.80
2018-12-11T02:50:50.003Z,17.33
2018-12-11T02:53:17.418Z,15.30
2018-12-11T02:55:44.865Z,5.93
2018-12-11T02:58:12.434Z,13.50
2018-12-11T03:00:39.935Z,9.50
2018-12-11T03:03:07.392Z,9.80
2018-12-11T03:05:34.882Z,15.30
2018-12-11T03:08:02.943Z,19.77
2018-12-11T03:10:30.437Z,12.27
2018-12-11T03:12:57.922Z,11.53
2018-12-11T03:15:25.750Z,16.40
2018-12-11T03:17:53.334Z,18.20
2018-12-11T03:20:21.354Z,9.03
2018-12-11T03:22:48.715Z,8.87
2018-12-11T03:25:16.315Z,11.80
2018-12-11T03:27:44.474Z,9.40
2018-12-11T03:30:12.086Z,12.33
2018-12-11T03:32:39.797Z,16.33
2018-12-11T03:35:07.180Z,9.97
2018-12-11T03:37:34.583Z,17.17
2018-12-11T03:40:02.068Z,12.82
2018-12-11T03:42:29.669Z,14.77
2018-12-11T03:44:57.147Z,7.45
2018-12-11T03:47:26.109Z,13.53
2018-12-11T03:49:53.567Z,13.33
2018-12-11T03:52:21.858Z,16.80
2018-12-11T03:54:49.485Z,11.70
2018-12-11T03:57:16.978Z,8.75
2018-12-11T03:59:44.552Z,19.23
2018-12-11T04:02:11.985Z,9.43
2018-12-11T04:04:39.441Z,16.02
2018-12-11T04:07:06.902Z,16.57
2018-12-11T04:09:34.356Z,18.90
2018-12-11T04:12:02.137Z,9.93
2018-12-11T04:14:29.708Z,17.30
2018-12-11T04:16:57.344Z,11.38
2018-12-11T04:19:26.172Z,15.67
2018-12-11T04:21:54.736Z,10.07
2018-12-11T04:24:22.173Z,10.85
2018-12-11T04:26:49.732Z,9.08
2018-12-11T04:29:17.106Z,17.00
2018-12-11T04:31:44.674Z,15.35
2018-12-11T04:34:12.777Z,10.70
2018-12-11T04:36:40.407Z,9.83
2018-12-11T04:39:08.616Z,13.60
2018-12-11T04:41:36.076Z,12.80
2018-12-11T04:44:03.514Z,10.03
2018-12-11T04:46:30.949Z,16.47
2018-12-11T04:48:58.330Z,10.33
2018-12-11T04:51:26.919Z,7.13
2018-12-11T04:56:31.082Z,7.50
2018-12-11T04:58:58.509Z,10.70
2018-12-11T05:01:26.012Z,9.50
2018-12-11T05:03:53.430Z,10.95
2018-12-11T05:06:21.330Z,8.43
2018-12-11T05:08:48.764Z,10.73
2018-12-11T05:11:16.289Z,16.73
2018-12-11T05:13:43.751Z,10.50
2018-12-11T05:16:11.171Z,12.87
2018-12-11T05:18:38.527Z,16.37
2018-12-11T05:21:06.028Z,14.80
2018-12-11T05:23:34.299Z,12.47
2018-12-11T05:26:01.772Z,10.37
2018-12-11T05:28:29.290Z,16.23
2018-12-11T05:30:56.669Z,18.50
2018-12-11T05:33:24.174Z,22.13
2018-12-11T05:35:51.533Z,13.27
2018-12-11T05:38:19.024Z,9.18
2018-12-11T05:40:46.517Z,15.57
2018-12-11T05:43:14.027Z,22.13
2018-12-11T05:45:41.576Z,19.77
2018-12-11T05:48:08.933Z,15.40
2018-12-11T05:50:36.332Z,11.35
2018-12-11T05:53:03.940Z,17.27
2018-12-11T05:55:32.639Z,21.30
2018-12-11T05:58:00.013Z,11.97
2018-12-11T06:00:28.215Z,15.00
2018-12-11T06:02:55.661Z,9.40
2018-12-11T06:05:23.211Z,15.70
2018-12-11T06:07:50.580Z,21.10
2018-12-11T06:10:18.069Z,13.07
2018-12-11T06:12:45.514Z,12.98
2018-12-11T06:15:13.055Z,15.33
2018-12-11T06:17:40.478Z,19.40
2018-12-11T06:20:08.052Z,10.20
2018-12-11T06:22:35.424Z,6.60
2018-12-11T06:34:42.963Z,15.25
2018-12-11T06:37:10.516Z,23.60
2018-12-11T06:39:37.996Z,14.20
2018-12-11T06:42:05.455Z,17.65
2018-12-11T06:44:32.839Z,15.48
2018-12-11T06:47:00.367Z,15.88
2018-12-11T06:49:27.821Z,15.28
2018-12-11T06:51:55.332Z,12.70
2018-12-11T06:54:22.867Z,11.40
2018-12-11T06:56:50.264Z,18.02
2018-12-11T06:59:17.759Z,6.17
2018-12-11T07:01:45.181Z,18.97
2018-12-11T07:04:12.590Z,7.23
2018-12-11T07:06:40.631Z,10.93
2018-12-11T07:09:08.078Z,10.68
2018-12-11T07:11:35.791Z,22.85
2018-12-11T07:14:03.313Z,13.47
2018-12-11T07:16:31.062Z,17.93
2018-12-11T07:18:59.237Z,16.97
2018-12-11T07:21:26.723Z,18.43
2018-12-11T07:23:54.111Z,12.97
2018-12-11T07:26:21.519Z,12.13
2018-12-11T07:28:48.987Z,8.50
2018-12-11T07:31:16.458Z,21.53
2018-12-11T07:33:43.999Z,12.90
2018-12-11T07:36:11.384Z,11.30
2018-12-11T07:38:38.863Z,11.43
2018-12-11T07:41:06.359Z,13.70
2018-12-11T07:43:33.829Z,18.37
2018-12-11T07:46:01.339Z,9.97
2018-12-11T07:48:28.723Z,23.83
2018-12-11T07:50:56.284Z,17.03
2018-12-11T07:53:23.769Z,15.23
2018-12-11T07:55:51.166Z,20.93
2018-12-11T07:58:18.954Z,8.53
2018-12-11T08:00:46.437Z,12.00
2018-12-11T08:03:13.954Z,12.30
2018-12-11T08:05:41.752Z,13.10
2018-12-11T08:08:13.798Z,16.13
2018-12-11T08:10:41.434Z,16.97
2018-12-11T08:13:09.103Z,10.27
2018-12-11T08:15:36.467Z,9.23
2018-12-11T08:18:03.939Z,13.20
2018-12-11T08:20:31.641Z,12.07
2018-12-11T08:22:59.122Z,11.57
2018-12-11T08:25:26.943Z,12.47
2018-12-11T08:27:54.385Z,15.60
2018-12-11T08:30:21.792Z,14.30
2018-12-11T08:32:49.229Z,15.87
2018-12-11T08:35:17.116Z,8.50
2018-12-11T08:37:44.560Z,10.23
2018-12-11T08:40:12.042Z,8.67
2018-12-11T08:42:39.398Z,12.80
2018-12-11T08:45:07.389Z,12.23
2018-12-11T08:47:35.004Z,6.90
2018-12-11T08:50:02.951Z,13.60
2018-12-11T08:52:30.469Z,20.03
2018-12-11T08:54:57.970Z,12.85
2018-12-11T08:57:25.501Z,15.17
2018-12-11T08:59:53.559Z,11.73
2018-12-11T09:02:20.948Z,15.30
2018-12-11T09:04:48.568Z,20.30
2018-12-11T09:07:16.108Z,13.50
2018-12-11T09:09:43.723Z,11.07
2018-12-11T09:12:11.844Z,12.77
2018-12-11T09:14:39.352Z,9.10
2018-12-11T09:17:10.214Z,15.70
2018-12-11T09:19:37.997Z,14.43
2018-12-11T09:22:06.330Z,16.77
2018-12-11T09:24:33.827Z,13.00
2018-12-11T09:27:01.281Z,12.30
2018-12-11T09:29:28.715Z,12.33
2018-12-11T09:31:56.219Z,5.90
2018-12-11T09:34:23.785Z,9.87
2018-12-11T09:36:52.151Z,9.60
2018-12-11T09:39:19.522Z,7.70
2018-12-11T09:41:47.078Z,8.93
2018-12-11T09:44:14.553Z,12.77
2018-12-11T09:46:42.009Z,11.27
2018-12-11T09:49:09.515Z,7.00
2018-12-11T09:51:37.052Z,13.60
2018-12-11T09:54:04.480Z,9.13
2018-12-11T09:56:32.024Z,8.13
2018-12-11T09:58:59.508Z,10.00
2018-12-11T10:01:27.067Z,7.07
2018-12-11T10:03:54.957Z,9.13
2018-12-11T10:06:22.417Z,9.70
2018-12-11T10:08:52.178Z,13.20
2018-12-11T10:11:19.814Z,13.20
2018-12-11T10:13:47.287Z,14.57
2018-12-11T10:16:14.960Z,9.80
2018-12-11T10:18:42.423Z,18.60
2018-12-11T10:21:09.942Z,8.63
2018-12-11T10:23:37.525Z,14.30
2018-12-11T10:26:04.929Z,11.87
2018-12-11T10:28:32.430Z,13.70
2018-12-11T10:30:59.885Z,9.03
2018-12-11T10:33:27.406Z,8.90
2018-12-11T10:35:54.980Z,10.23
2018-12-11T10:38:22.488Z,9.73
2018-12-11T10:40:49.975Z,8.87
2018-12-11T10:43:17.504Z,6.60
2018-12-11T10:45:44.996Z,10.10
2018-12-11T10:48:12.504Z,11.47
2018-12-11T10:50:40.072Z,7.83
2018-12-11T10:53:07.557Z,14.60
2018-12-11T10:55:35.150Z,14.10
2018-12-11T10:58:02.814Z,7.93
2018-12-11T11:00:35.808Z,5.37
2018-12-11T11:03:06.176Z,8.90
2018-12-11T11:05:33.848Z,10.17
2018-12-11T11:08:01.374Z,16.67
2018-12-11T11:10:28.940Z,9.43
2018-12-11T11:12:56.476Z,14.10
2018-12-11T11:15:24.143Z,9.30
2018-12-11T11:17:51.897Z,14.70
2018-12-11T11:20:20.237Z,10.50
2018-12-11T11:22:47.919Z,15.87
2018-12-11T11:25:15.573Z,8.70
2018-12-11T11:27:43.004Z,17.43
2018-12-11T11:30:10.603Z,14.40
2018-12-11T11:32:38.083Z,14.17
2018-12-11T11:35:06.354Z,6.80
2018-12-11T11:37:34.330Z,6.63
2018-12-11T11:40:02.602Z,6.73
2018-12-11T11:42:30.267Z,9.43
2018-12-11T11:44:57.925Z,12.40
2018-12-11T11:47:25.425Z,14.00
2018-12-11T11:49:52.894Z,8.67
2018-12-11T11:52:20.772Z,8.80
2018-12-11T11:54:48.276Z,7.97
2018-12-11T11:57:15.792Z,11.40
2018-12-11T11:59:43.237Z,18.23
2018-12-11T12:02:10.900Z,8.37
2018-12-11T12:04:38.475Z,6.00
2018-12-11T12:07:05.843Z,10.17
2018-12-11T12:09:33.293Z,12.07
2018-12-11T12:12:00.789Z,14.50
2018-12-11T12:14:28.199Z,12.60
2018-12-11T12:16:55.660Z,13.50
2018-12-11T12:19:23.103Z,10.97
2018-12-11T12:21:50.520Z,7.80
2018-12-11T12:24:18.004Z,10.43
2018-12-11T12:26:45.589Z,10.43
2018-12-11T12:29:13.085Z,10.13
2018-12-11T12:31:40.670Z,5.03
2018-12-11T12:34:08.151Z,8.93
2018-12-11T12:36:35.601Z,17.43
2018-12-11T12:39:05.649Z,11.40
2018-12-11T12:41:33.113Z,13.43
2018-12-11T12:44:00.605Z,8.93
2018-12-11T12:46:28.150Z,10.70
2018-12-11T12:48:55.828Z,7.00
2018-12-11T12:51:23.390Z,9.47
2018-12-11T12:53:51.021Z,7.37
2018-12-11T12:56:18.463Z,18.97
2018-12-11T12:58:45.849Z,16.27
2018-12-11T13:01:13.345Z,17.77
2018-12-11T13:03:41.001Z,6.63
2018-12-11T13:06:08.526Z,10.50
2018-12-11T13:08:35.931Z,13.20
2018-12-11T13:11:03.556Z,12.50
2018-12-11T13:13:31.241Z,14.70
2018-12-11T13:15:58.748Z,9.77
2018-12-11T13:18:26.326Z,17.80
2018-12-11T13:20:53.921Z,9.80
2018-12-11T13:23:21.413Z,13.57
2018-12-11T13:25:48.905Z,5.97
2018-12-11T13:28:16.450Z,9.70
2018-12-11T13:30:44.318Z,13.57
2018-12-11T13:33:11.725Z,11.00
2018-12-11T13:35:39.325Z,9.43
2018-12-11T13:38:06.877Z,7.90
2018-12-11T13:40:34.770Z,9.80
2018-12-11T13:43:02.235Z,11.23
2018-12-11T13:45:29.736Z,10.03
2018-12-11T13:47:57.253Z,10.17
2018-12-11T13:50:24.780Z,17.10
2018-12-11T13:52:52.232Z,11.53
2018-12-11T13:55:19.669Z,18.07
2018-12-11T13:57:47.271Z,8.77
2018-12-11T14:00:15.521Z,6.33
2018-12-11T14:02:43.010Z,12.33
2018-12-11T14:05:10.493Z,10.03
2018-12-11T14:07:38.026Z,11.17
2018-12-11T14:10:05.762Z,10.50
2018-12-11T14:12:33.228Z,8.00
2018-12-11T14:15:01.309Z,9.57
2018-12-11T14:17:28.983Z,13.57
2018-12-11T14:19:57.257Z,13.17
2018-12-11T14:22:24.791Z,8.10
2018-12-11T14:24:52.224Z,8.77
2018-12-11T14:27:19.741Z,9.53
2018-12-11T14:29:47.221Z,9.00
2018-12-11T14:32:15.835Z,9.77
2018-12-11T14:34:43.394Z,15.77
2018-12-11T14:37:11.673Z,12.00
2018-12-11T14:39:39.437Z,10.20
2018-12-11T14:42:06.941Z,9.97
2018-12-11T14:44:34.480Z,13.67
2018-12-11T14:47:01.937Z,6.37
2018-12-11T14:49:29.496Z,14.53
2018-12-11T14:51:57.238Z,8.80
2018-12-11T14:54:24.760Z,15.20
2018-12-11T14:56:52.510Z,10.20
2018-12-11T14:59:20.723Z,8.93
2018-12-11T15:01:48.305Z,8.87
2018-12-11T15:04:16.399Z,9.07
2018-12-11T15:06:43.911Z,5.43
2018-12-11T15:09:17.043Z,12.43
2018-12-11T15:11:44.546Z,8.83
2018-12-11T15:14:11.976Z,11.13
2018-12-11T15:16:39.530Z,8.73
2018-12-11T15:19:07.073Z,10.63
2018-12-11T15:21:34.714Z,4.10
2018-12-11T15:24:02.276Z,6.67
2018-12-11T15:26:30.835Z,9.43
2018-12-11T15:31:38.172Z,10.07
2018-12-11T15:34:05.732Z,17.40
2018-12-11T15:36:33.186Z,7.13
2018-12-11T15:39:00.846Z,11.93
2018-12-11T15:41:28.374Z,10.63
2018-12-11T15:43:55.918Z,14.27
2018-12-11T15:49:02.288Z,12.73
2018-12-11T15:51:29.941Z,10.17
2018-12-11T15:53:57.351Z,7.37
2018-12-11T15:56:24.879Z,11.90
2018-12-11T15:58:52.390Z,7.63
2018-12-11T16:01:20.180Z,10.23
2018-12-11T16:03:47.739Z,12.47
2018-12-11T16:06:15.203Z,12.57
2018-12-11T16:08:42.598Z,15.00
2018-12-11T16:11:10.150Z,11.40
2018-12-11T16:13:37.837Z,14.47
2018-12-11T16:16:05.493Z,13.97
2018-12-11T16:18:33.693Z,10.70
2018-12-11T16:21:01.178Z,10.73
2018-12-11T16:23:28.750Z,12.70
2018-12-11T16:25:56.440Z,12.97
2018-12-11T16:28:24.064Z,14.60
2018-12-11T16:30:51.614Z,15.63
2018-12-11T16:33:19.286Z,9.73
2018-12-11T16:35:47.028Z,15.60
2018-12-11T16:38:14.559Z,15.40
2018-12-11T16:40:42.272Z,15.10
2018-12-11T16:43:09.886Z,9.77
2018-12-11T16:45:37.457Z,19.53
2018-12-11T16:48:05.328Z,11.67
2018-12-11T16:50:33.415Z,12.50
2018-12-11T16:55:35.448Z,18.73
2018-12-11T16:58:02.975Z,9.23
2018-12-11T17:00:31.870Z,17.17
2018-12-11T17:02:59.512Z,18.37
2018-12-11T17:05:26.941Z,13.63
2018-12-11T17:07:54.415Z,16.90
2018-12-11T17:10:22.095Z,25.17
2018-12-11T17:12:49.670Z,10.73
2018-12-11T17:15:22.663Z,12.63
2018-12-11T17:17:51.592Z,17.63
2018-12-11T17:20:20.058Z,15.70
2018-12-11T17:22:47.556Z,21.67
2018-12-11T17:25:15.899Z,20.93
2018-12-11T17:27:45.164Z,23.27
2018-12-11T17:30:12.700Z,19.67
2018-12-11T17:32:40.531Z,20.77
2018-12-11T17:35:08.039Z,14.23
2018-12-11T17:37:35.621Z,13.43
2018-12-11T17:40:03.471Z,17.90
2018-12-11T17:42:31.104Z,17.47
2018-12-11T17:44:59.292Z,16.27
2018-12-11T17:47:26.900Z,21.40
2018-12-11T17:49:54.914Z,22.37
2018-12-11T17:52:22.580Z,18.30
2018-12-11T17:54:50.256Z,26.17
2018-12-11T17:57:17.969Z,26.67
2018-12-11T17:59:45.594Z,13.50
2018-12-11T18:02:17.962Z,20.03
2018-12-11T18:04:45.419Z,22.70
2018-12-11T18:07:12.886Z,11.83
2018-12-11T18:09:40.997Z,23.50
2018-12-11T18:12:08.490Z,21.00
2018-12-11T18:14:35.998Z,12.10
2018-12-11T18:17:03.702Z,19.23
2018-12-11T18:19:31.205Z,10.60
2018-12-11T18:21:59.228Z,12.83
2018-12-11T18:24:26.799Z,21.80
2018-12-11T18:26:54.529Z,22.00
2018-12-11T18:29:21.938Z,19.07
2018-12-11T18:31:49.880Z,15.30
2018-12-11T18:34:17.721Z,28.93
2018-12-11T18:36:45.507Z,19.23
2018-12-11T18:39:13.508Z,23.00
2018-12-11T18:41:41.119Z,18.17
2018-12-11T18:44:08.777Z,22.47
2018-12-11T18:46:36.345Z,19.67
2018-12-11T18:49:03.747Z,25.87
2018-12-11T18:51:31.309Z,15.90
2018-12-11T18:53:58.670Z,28.90
2018-12-11T18:56:26.208Z,27.43
2018-12-11T18:58:54.465Z,20.07
2018-12-11T19:01:22.001Z,20.60
2018-12-11T19:03:49.551Z,20.53
2018-12-11T19:06:16.999Z,20.70
2018-12-11T19:08:44.507Z,22.00
2018-12-11T19:11:12.250Z,18.53
2018-12-11T19:13:39.766Z,18.63
2018-12-11T19:16:07.504Z,20.17
2018-12-11T19:18:35.309Z,18.83
2018-12-11T19:21:02.871Z,21.83
2018-12-11T19:23:50.074Z,18.00
2018-12-11T19:26:17.923Z,24.67
2018-12-11T19:28:45.395Z,27.17
2018-12-11T19:31:12.867Z,25.23
2018-12-11T19:33:40.507Z,21.17
2018-12-11T19:36:08.146Z,25.53
2018-12-11T19:38:35.737Z,20.33
2018-12-11T19:41:04.285Z,14.57
2018-12-11T19:43:31.819Z,25.67
2018-12-11T19:45:59.441Z,17.77
2018-12-11T19:48:27.254Z,31.40
2018-12-11T19:50:54.740Z,25.97
2018-12-11T19:53:22.288Z,30.93
2018-12-11T19:55:50.083Z,24.57
2018-12-11T19:58:17.748Z,20.90
2018-12-11T20:00:45.527Z,23.27
2018-12-11T20:03:13.085Z,20.80
2018-12-11T20:05:40.945Z,28.17
2018-12-11T20:08:08.711Z,29.60
2018-12-11T20:10:36.568Z,24.63
2018-12-11T20:13:04.102Z,27.77
2018-12-11T20:15:31.909Z,26.83
2018-12-11T20:17:59.464Z,38.30
2018-12-11T20:20:28.691Z,25.90
2018-12-11T20:22:56.262Z,24.83
2018-12-11T20:25:23.684Z,31.47
2018-12-11T20:27:52.865Z,33.90
2018-12-11T20:30:23.515Z,29.10
2018-12-11T20:32:51.251Z,31.57
2018-12-11T20:35:19.092Z,32.63
2018-12-11T20:37:46.905Z,22.10
2018-12-11T20:40:15.561Z,29.00
2018-12-11T20:42:43.593Z,26.80
2018-12-11T20:45:11.438Z,23.30
2018-12-11T20:47:39.225Z,23.73
2018-12-11T20:50:07.216Z,24.53
2018-12-11T20:52:34.900Z,25.40
2018-12-11T20:55:02.721Z,25.53
2018-12-11T20:57:30.291Z,28.77
2018-12-11T20:59:57.870Z,27.87
2018-12-11T21:02:25.464Z,22.40
2018-12-11T21:04:53.099Z,20.63
2018-12-11T21:07:21.437Z,23.57
2018-12-11T21:09:49.257Z,22.47
2018-12-11T21:12:18.021Z,26.03
2018-12-11T21:17:31.076Z,27.87
2018-12-11T21:19:59.459Z,22.27
2018-12-11T21:22:27.224Z,32.93
2018-12-11T21:24:54.993Z,25.73
2018-12-11T21:27:37.229Z,21.47
2018-12-11T21:30:06.971Z,29.53
2018-12-11T21:32:34.711Z,27.03
2018-12-11T21:35:02.703Z,30.33
2018-12-11T21:37:30.354Z,26.90
2018-12-11T21:39:57.937Z,26.10
2018-12-11T21:42:26.072Z,26.33
2018-12-11T21:44:53.872Z,24.40
2018-12-11T21:47:21.527Z,43.67
2018-12-11T21:49:49.583Z,32.20
2018-12-11T21:52:17.796Z,34.23
2018-12-11T21:54:46.072Z,28.10
2018-12-11T21:57:13.655Z,34.40
2018-12-11T21:59:42.658Z,23.33
2018-12-11T22:02:10.387Z,25.53
2018-12-11T22:04:38.072Z,31.97
2018-12-11T22:07:05.697Z,26.27
2018-12-11T22:09:33.465Z,26.03
2018-12-11T22:12:02.332Z,22.20
2018-12-11T22:14:30.020Z,23.93
2018-12-11T22:16:57.687Z,28.80
2018-12-11T22:19:25.343Z,30.23
2018-12-11T22:21:52.867Z,24.73
2018-12-11T22:24:20.702Z,25.80
2018-12-11T22:26:48.867Z,29.47
2018-12-11T22:29:17.410Z,24.70
2018-12-11T22:31:45.108Z,30.13
2018-12-11T22:34:14.427Z,38.47
2018-12-11T22:36:43.246Z,21.27
2018-12-11T22:39:11.187Z,27.90
2018-12-11T22:41:38.822Z,25.70
2018-12-11T22:45:31.094Z,28.10
2018-12-11T22:47:58.841Z,33.20
2018-12-11T22:50:27.515Z,26.00
2018-12-11T22:52:56.772Z,17.63
2018-12-11T22:55:24.584Z,25.77
2018-12-11T22:57:52.849Z,18.30
2018-12-11T23:00:20.927Z,27.73
2018-12-11T23:02:48.643Z,22.53
2018-12-11T23:05:16.808Z,23.40
2018-12-11T23:07:44.421Z,28.23
2018-12-11T23:10:11.968Z,25.00
2018-12-11T23:12:39.424Z,23.60
2018-12-11T23:15:08.227Z,25.53
2018-12-11T23:17:37.166Z,25.87
2018-12-11T23:20:04.998Z,27.00
2018-12-11T23:22:32.529Z,18.47
2018-12-11T23:25:00.380Z,19.30
2018-12-11T23:27:28.081Z,25.43
2018-12-11T23:29:55.633Z,17.90
2018-12-11T23:32:23.257Z,23.50
2018-12-11T23:34:52.189Z,24.07
2018-12-11T23:37:19.876Z,25.83
2018-12-11T23:39:47.420Z,27.00
2018-12-11T23:42:15.560Z,24.20
2018-12-11T23:44:43.211Z,30.60
2018-12-11T23:47:10.675Z,30.70
2018-12-11T23:49:38.476Z,24.77
2018-12-11T23:52:06.001Z,28.27
2018-12-11T23:54:33.543Z,28.10
2018-12-11T23:57:01.249Z,26.03
2018-12-11T23:59:29.425Z,23.27
